Terminal Aerodrome Forecast
Issued by NWS

Home | Current Version | Previous Version | Text Only | Print | Product List | Glossary On
Versions: 1 2 3 4 5 6 7 8 9 10 11 12
764
FTUS45 KVEF 052338
TAFBIH
TAF
KBIH 052338Z 0600/0624 36012G21KT P6SM BKN150
     FM060300 33008KT P6SM BKN150
     FM061900 34012G20KT P6SM SCT250=

USA.gov is the U.S. government's official web portal to all federal, state and local government web resources and services.